sensor_id;sensor_type;location;lat;lon;timestamp;temperature;humidity
71668;DHT22;59504;54.806;9.640;2023-07-28T00:00:52;15.40;63.30
71668;DHT22;59504;54.806;9.640;2023-07-28T00:03:12;15.40;63.70
71668;DHT22;59504;54.806;9.640;2023-07-28T00:05:33;15.40;63.80
71668;DHT22;59504;54.806;9.640;2023-07-28T00:07:53;15.40;64.00
71668;DHT22;59504;54.806;9.640;2023-07-28T00:10:14;15.40;64.00
71668;DHT22;59504;54.806;9.640;2023-07-28T00:12:34;15.40;64.00
71668;DHT22;59504;54.806;9.640;2023-07-28T00:14:55;15.40;64.20
71668;DHT22;59504;54.806;9.640;2023-07-28T00:17:15;15.40;64.40
71668;DHT22;59504;54.806;9.640;2023-07-28T00:19:36;15.40;64.50
71668;DHT22;59504;54.806;9.640;2023-07-28T00:21:56;15.40;64.20
71668;DHT22;59504;54.806;9.640;2023-07-28T00:24:17;15.40;64.60
71668;DHT22;59504;54.806;9.640;2023-07-28T00:26:38;15.40;64.50
71668;DHT22;59504;54.806;9.640;2023-07-28T00:28:58;15.40;64.70
71668;DHT22;59504;54.806;9.640;2023-07-28T00:31:19;15.40;64.80
71668;DHT22;59504;54.806;9.640;2023-07-28T00:33:39;15.40;64.60
71668;DHT22;59504;54.806;9.640;2023-07-28T00:36:00;15.40;64.80
71668;DHT22;59504;54.806;9.640;2023-07-28T00:38:21;15.40;65.10
71668;DHT22;59504;54.806;9.640;2023-07-28T00:40:41;15.40;65.30
71668;DHT22;59504;54.806;9.640;2023-07-28T00:43:02;15.40;65.40
71668;DHT22;59504;54.806;9.640;2023-07-28T00:45:22;15.40;65.40
71668;DHT22;59504;54.806;9.640;2023-07-28T00:47:43;15.40;65.40
71668;DHT22;59504;54.806;9.640;2023-07-28T00:50:04;15.40;65.10
71668;DHT22;59504;54.806;9.640;2023-07-28T00:52:25;15.40;65.10
71668;DHT22;59504;54.806;9.640;2023-07-28T00:54:44;15.40;65.10
71668;DHT22;59504;54.806;9.640;2023-07-28T00:57:03;15.40;65.40
71668;DHT22;59504;54.806;9.640;2023-07-28T00:59:24;15.40;65.60
71668;DHT22;59504;54.806;9.640;2023-07-28T01:01:43;15.40;65.70
71668;DHT22;59504;54.806;9.640;2023-07-28T01:04:02;15.40;65.70
71668;DHT22;59504;54.806;9.640;2023-07-28T01:06:40;15.40;65.80
71668;DHT22;59504;54.806;9.640;2023-07-28T01:09:04;15.40;66.00
71668;DHT22;59504;54.806;9.640;2023-07-28T01:11:24;15.40;66.70
71668;DHT22;59504;54.806;9.640;2023-07-28T01:13:43;15.40;66.80
71668;DHT22;59504;54.806;9.640;2023-07-28T01:16:03;15.40;66.20
71668;DHT22;59504;54.806;9.640;2023-07-28T01:18:22;15.40;66.30
71668;DHT22;59504;54.806;9.640;2023-07-28T01:20:41;15.40;66.30
71668;DHT22;59504;54.806;9.640;2023-07-28T01:27:49;15.40;65.90
71668;DHT22;59504;54.806;9.640;2023-07-28T01:30:09;15.40;65.90
71668;DHT22;59504;54.806;9.640;2023-07-28T01:32:28;15.40;66.80
71668;DHT22;59504;54.806;9.640;2023-07-28T01:34:47;15.40;66.40
71668;DHT22;59504;54.806;9.640;2023-07-28T01:37:06;15.40;66.50
71668;DHT22;59504;54.806;9.640;2023-07-28T01:39:26;15.40;66.60
71668;DHT22;59504;54.806;9.640;2023-07-28T01:41:45;15.50;66.80
71668;DHT22;59504;54.806;9.640;2023-07-28T01:44:05;15.40;66.80
71668;DHT22;59504;54.806;9.640;2023-07-28T01:46:24;15.40;66.90
71668;DHT22;59504;54.806;9.640;2023-07-28T01:48:43;15.40;66.90
71668;DHT22;59504;54.806;9.640;2023-07-28T01:51:03;15.30;66.70
71668;DHT22;59504;54.806;9.640;2023-07-28T01:53:22;15.30;66.80
71668;DHT22;59504;54.806;9.640;2023-07-28T01:55:41;15.40;66.80
71668;DHT22;59504;54.806;9.640;2023-07-28T01:58:01;15.30;67.50
71668;DHT22;59504;54.806;9.640;2023-07-28T02:00:20;15.30;67.70
71668;DHT22;59504;54.806;9.640;2023-07-28T02:02:39;15.40;67.30
71668;DHT22;59504;54.806;9.640;2023-07-28T02:04:58;15.30;67.20
71668;DHT22;59504;54.806;9.640;2023-07-28T02:07:18;15.30;67.30
71668;DHT22;59504;54.806;9.640;2023-07-28T02:09:37;15.30;67.70
71668;DHT22;59504;54.806;9.640;2023-07-28T02:11:56;15.30;67.10
71668;DHT22;59504;54.806;9.640;2023-07-28T02:14:16;15.20;67.40
71668;DHT22;59504;54.806;9.640;2023-07-28T02:16:35;15.30;67.20
71668;DHT22;59504;54.806;9.640;2023-07-28T02:18:54;15.30;67.30
71668;DHT22;59504;54.806;9.640;2023-07-28T02:21:14;15.30;67.50
71668;DHT22;59504;54.806;9.640;2023-07-28T02:23:33;15.20;67.60
71668;DHT22;59504;54.806;9.640;2023-07-28T02:25:52;15.20;68.10
71668;DHT22;59504;54.806;9.640;2023-07-28T02:28:11;15.20;68.70
71668;DHT22;59504;54.806;9.640;2023-07-28T02:30:31;15.20;68.80
71668;DHT22;59504;54.806;9.640;2023-07-28T02:32:50;15.20;68.10
71668;DHT22;59504;54.806;9.640;2023-07-28T02:35:09;15.30;68.30
71668;DHT22;59504;54.806;9.640;2023-07-28T02:37:29;15.30;68.60
71668;DHT22;59504;54.806;9.640;2023-07-28T02:39:48;15.20;68.70
71668;DHT22;59504;54.806;9.640;2023-07-28T02:42:08;15.20;68.70
71668;DHT22;59504;54.806;9.640;2023-07-28T02:44:27;15.20;68.90
71668;DHT22;59504;54.806;9.640;2023-07-28T02:46:47;15.20;68.40
71668;DHT22;59504;54.806;9.640;2023-07-28T02:49:06;15.20;68.40
71668;DHT22;59504;54.806;9.640;2023-07-28T02:51:25;15.20;68.90
71668;DHT22;59504;54.806;9.640;2023-07-28T02:53:44;15.20;69.80
71668;DHT22;59504;54.806;9.640;2023-07-28T02:56:03;15.20;69.80
71668;DHT22;59504;54.806;9.640;2023-07-28T02:58:23;15.20;69.40
71668;DHT22;59504;54.806;9.640;2023-07-28T03:00:43;15.20;69.20
71668;DHT22;59504;54.806;9.640;2023-07-28T03:03:02;15.20;69.20
71668;DHT22;59504;54.806;9.640;2023-07-28T03:05:22;15.30;69.30
71668;DHT22;59504;54.806;9.640;2023-07-28T03:07:41;15.20;69.20
71668;DHT22;59504;54.806;9.640;2023-07-28T03:10:00;15.20;69.20
71668;DHT22;59504;54.806;9.640;2023-07-28T03:12:20;15.20;69.40
71668;DHT22;59504;54.806;9.640;2023-07-28T03:14:39;15.20;69.20
71668;DHT22;59504;54.806;9.640;2023-07-28T03:16:58;15.20;69.40
71668;DHT22;59504;54.806;9.640;2023-07-28T03:19:17;15.30;69.50
71668;DHT22;59504;54.806;9.640;2023-07-28T03:21:36;15.30;69.30
71668;DHT22;59504;54.806;9.640;2023-07-28T03:23:56;15.20;69.30
71668;DHT22;59504;54.806;9.640;2023-07-28T03:26:15;15.30;69.70
71668;DHT22;59504;54.806;9.640;2023-07-28T03:28:34;15.30;69.80
71668;DHT22;59504;54.806;9.640;2023-07-28T03:30:54;15.20;69.70
71668;DHT22;59504;54.806;9.640;2023-07-28T03:33:13;15.20;69.80
71668;DHT22;59504;54.806;9.640;2023-07-28T03:35:32;15.20;69.80
71668;DHT22;59504;54.806;9.640;2023-07-28T03:37:51;15.20;70.60
71668;DHT22;59504;54.806;9.640;2023-07-28T03:40:11;15.20;69.90
71668;DHT22;59504;54.806;9.640;2023-07-28T03:42:30;15.20;69.90
71668;DHT22;59504;54.806;9.640;2023-07-28T03:44:49;15.20;70.00
71668;DHT22;59504;54.806;9.640;2023-07-28T03:47:08;15.20;70.80
71668;DHT22;59504;54.806;9.640;2023-07-28T03:49:28;15.20;70.80
71668;DHT22;59504;54.806;9.640;2023-07-28T03:51:47;15.20;71.00
71668;DHT22;59504;54.806;9.640;2023-07-28T03:54:06;15.30;70.20
71668;DHT22;59504;54.806;9.640;2023-07-28T03:56:25;15.20;70.90
71668;DHT22;59504;54.806;9.640;2023-07-28T03:58:46;15.20;70.10
71668;DHT22;59504;54.806;9.640;2023-07-28T04:01:06;15.20;70.00
71668;DHT22;59504;54.806;9.640;2023-07-28T04:03:26;15.20;69.40
71668;DHT22;59504;54.806;9.640;2023-07-28T04:05:46;15.20;70.20
71668;DHT22;59504;54.806;9.640;2023-07-28T04:08:05;15.20;69.80
71668;DHT22;59504;54.806;9.640;2023-07-28T04:10:24;15.20;70.10
71668;DHT22;59504;54.806;9.640;2023-07-28T04:12:44;15.20;70.10
71668;DHT22;59504;54.806;9.640;2023-07-28T04:15:03;15.20;70.20
71668;DHT22;59504;54.806;9.640;2023-07-28T04:17:22;15.20;70.20
71668;DHT22;59504;54.806;9.640;2023-07-28T04:19:41;15.20;71.00
71668;DHT22;59504;54.806;9.640;2023-07-28T04:22:01;15.20;70.90
71668;DHT22;59504;54.806;9.640;2023-07-28T04:24:20;15.20;70.30
71668;DHT22;59504;54.806;9.640;2023-07-28T04:26:39;15.20;70.10
71668;DHT22;59504;54.806;9.640;2023-07-28T04:28:59;15.20;70.20
71668;DHT22;59504;54.806;9.640;2023-07-28T04:31:18;15.20;70.50
71668;DHT22;59504;54.806;9.640;2023-07-28T04:33:38;15.20;70.60
71668;DHT22;59504;54.806;9.640;2023-07-28T04:36:02;15.30;70.80
71668;DHT22;59504;54.806;9.640;2023-07-28T04:38:21;15.20;70.90
71668;DHT22;59504;54.806;9.640;2023-07-28T04:40:41;15.40;70.90
71668;DHT22;59504;54.806;9.640;2023-07-28T04:43:00;15.20;70.80
71668;DHT22;59504;54.806;9.640;2023-07-28T04:45:19;15.30;71.00
71668;DHT22;59504;54.806;9.640;2023-07-28T04:47:39;15.30;70.90
71668;DHT22;59504;54.806;9.640;2023-07-28T04:49:58;15.30;70.80
71668;DHT22;59504;54.806;9.640;2023-07-28T04:52:17;15.30;71.00
71668;DHT22;59504;54.806;9.640;2023-07-28T04:54:37;15.30;71.20
71668;DHT22;59504;54.806;9.640;2023-07-28T04:56:56;15.40;72.10
71668;DHT22;59504;54.806;9.640;2023-07-28T04:59:15;15.30;71.30
71668;DHT22;59504;54.806;9.640;2023-07-28T05:01:34;15.30;72.30
71668;DHT22;59504;54.806;9.640;2023-07-28T05:03:54;15.40;72.60
71668;DHT22;59504;54.806;9.640;2023-07-28T05:06:13;15.50;72.00
71668;DHT22;59504;54.806;9.640;2023-07-28T05:08:33;15.50;72.00
71668;DHT22;59504;54.806;9.640;2023-07-28T05:10:52;15.40;72.00
71668;DHT22;59504;54.806;9.640;2023-07-28T05:13:11;15.50;72.10
71668;DHT22;59504;54.806;9.640;2023-07-28T05:15:31;15.50;72.40
71668;DHT22;59504;54.806;9.640;2023-07-28T05:17:50;15.60;72.90
71668;DHT22;59504;54.806;9.640;2023-07-28T05:20:10;15.60;73.30
71668;DHT22;59504;54.806;9.640;2023-07-28T05:22:29;15.70;73.40
71668;DHT22;59504;54.806;9.640;2023-07-28T05:24:48;15.80;74.80
71668;DHT22;59504;54.806;9.640;2023-07-28T05:27:07;15.80;76.40
71668;DHT22;59504;54.806;9.640;2023-07-28T05:29:26;15.90;75.90
71668;DHT22;59504;54.806;9.640;2023-07-28T05:31:46;16.10;76.50
71668;DHT22;59504;54.806;9.640;2023-07-28T05:34:05;16.20;76.30
71668;DHT22;59504;54.806;9.640;2023-07-28T05:36:24;16.30;76.30
71668;DHT22;59504;54.806;9.640;2023-07-28T05:38:44;16.30;78.20
71668;DHT22;59504;54.806;9.640;2023-07-28T05:41:03;16.40;78.70
71668;DHT22;59504;54.806;9.640;2023-07-28T05:43:23;16.50;76.30
71668;DHT22;59504;54.806;9.640;2023-07-28T05:45:45;16.60;77.20
71668;DHT22;59504;54.806;9.640;2023-07-28T05:48:05;16.70;78.50
71668;DHT22;59504;54.806;9.640;2023-07-28T05:50:24;16.80;78.60
71668;DHT22;59504;54.806;9.640;2023-07-28T05:52:43;16.90;77.80
71668;DHT22;59504;54.806;9.640;2023-07-28T05:55:03;17.00;77.70
71668;DHT22;59504;54.806;9.640;2023-07-28T05:57:22;17.00;77.60
71668;DHT22;59504;54.806;9.640;2023-07-28T05:59:41;17.20;78.50
71668;DHT22;59504;54.806;9.640;2023-07-28T06:02:00;17.20;79.60
71668;DHT22;59504;54.806;9.640;2023-07-28T06:04:20;17.30;79.50
71668;DHT22;59504;54.806;9.640;2023-07-28T06:06:39;17.20;77.80
71668;DHT22;59504;54.806;9.640;2023-07-28T06:08:58;17.30;77.80
71668;DHT22;59504;54.806;9.640;2023-07-28T06:11:17;17.40;77.00
71668;DHT22;59504;54.806;9.640;2023-07-28T06:13:37;17.40;76.60
71668;DHT22;59504;54.806;9.640;2023-07-28T06:15:56;17.50;77.20
71668;DHT22;59504;54.806;9.640;2023-07-28T06:18:17;17.50;76.20
71668;DHT22;59504;54.806;9.640;2023-07-28T06:20:37;17.60;76.00
71668;DHT22;59504;54.806;9.640;2023-07-28T06:22:56;17.60;75.70
71668;DHT22;59504;54.806;9.640;2023-07-28T06:25:15;17.70;75.60
71668;DHT22;59504;54.806;9.640;2023-07-28T06:27:35;17.80;75.20
71668;DHT22;59504;54.806;9.640;2023-07-28T06:29:54;17.80;75.00
71668;DHT22;59504;54.806;9.640;2023-07-28T06:32:13;17.90;75.40
71668;DHT22;59504;54.806;9.640;2023-07-28T06:34:32;17.90;75.20
71668;DHT22;59504;54.806;9.640;2023-07-28T06:36:51;17.90;74.20
71668;DHT22;59504;54.806;9.640;2023-07-28T06:39:11;18.00;73.80
71668;DHT22;59504;54.806;9.640;2023-07-28T06:41:30;18.00;73.90
71668;DHT22;59504;54.806;9.640;2023-07-28T06:43:50;18.00;73.80
71668;DHT22;59504;54.806;9.640;2023-07-28T06:46:09;18.10;72.90
71668;DHT22;59504;54.806;9.640;2023-07-28T06:48:28;18.10;72.60
71668;DHT22;59504;54.806;9.640;2023-07-28T06:50:47;18.20;72.80
71668;DHT22;59504;54.806;9.640;2023-07-28T06:53:07;18.30;72.70
71668;DHT22;59504;54.806;9.640;2023-07-28T06:55:26;18.30;71.20
71668;DHT22;59504;54.806;9.640;2023-07-28T06:57:45;18.30;71.60
71668;DHT22;59504;54.806;9.640;2023-07-28T07:00:04;18.40;71.60
71668;DHT22;59504;54.806;9.640;2023-07-28T07:02:24;18.50;71.20
71668;DHT22;59504;54.806;9.640;2023-07-28T07:04:43;18.60;71.40
71668;DHT22;59504;54.806;9.640;2023-07-28T07:07:02;18.60;71.00
71668;DHT22;59504;54.806;9.640;2023-07-28T07:09:22;18.70;70.50
71668;DHT22;59504;54.806;9.640;2023-07-28T07:11:41;18.80;70.30
71668;DHT22;59504;54.806;9.640;2023-07-28T07:14:00;18.80;69.80
71668;DHT22;59504;54.806;9.640;2023-07-28T07:16:20;18.90;70.40
71668;DHT22;59504;54.806;9.640;2023-07-28T07:18:39;19.00;69.90
71668;DHT22;59504;54.806;9.640;2023-07-28T07:21:01;19.00;70.80
71668;DHT22;59504;54.806;9.640;2023-07-28T07:23:22;19.10;70.20
71668;DHT22;59504;54.806;9.640;2023-07-28T07:25:41;19.20;70.30
71668;DHT22;59504;54.806;9.640;2023-07-28T07:28:00;19.30;69.10
71668;DHT22;59504;54.806;9.640;2023-07-28T07:30:19;19.40;68.20
71668;DHT22;59504;54.806;9.640;2023-07-28T07:32:38;19.50;67.70
71668;DHT22;59504;54.806;9.640;2023-07-28T07:34:57;19.60;68.00
71668;DHT22;59504;54.806;9.640;2023-07-28T07:37:16;19.60;65.60
71668;DHT22;59504;54.806;9.640;2023-07-28T07:39:36;19.80;65.60
71668;DHT22;59504;54.806;9.640;2023-07-28T07:41:56;19.80;65.60
71668;DHT22;59504;54.806;9.640;2023-07-28T07:44:15;19.80;66.40
71668;DHT22;59504;54.806;9.640;2023-07-28T07:46:34;19.90;64.60
71668;DHT22;59504;54.806;9.640;2023-07-28T07:48:54;19.90;63.00
71668;DHT22;59504;54.806;9.640;2023-07-28T07:51:13;19.90;63.40
71668;DHT22;59504;54.806;9.640;2023-07-28T07:53:32;20.00;63.90
71668;DHT22;59504;54.806;9.640;2023-07-28T07:55:51;20.10;63.60
71668;DHT22;59504;54.806;9.640;2023-07-28T07:58:11;20.10;60.80
71668;DHT22;59504;54.806;9.640;2023-07-28T08:00:30;20.10;60.00
71668;DHT22;59504;54.806;9.640;2023-07-28T08:02:49;20.20;60.80
71668;DHT22;59504;54.806;9.640;2023-07-28T08:05:09;20.20;59.40
71668;DHT22;59504;54.806;9.640;2023-07-28T08:07:28;20.20;57.60
71668;DHT22;59504;54.806;9.640;2023-07-28T08:09:48;20.30;58.50
71668;DHT22;59504;54.806;9.640;2023-07-28T08:12:07;20.30;58.70
71668;DHT22;59504;54.806;9.640;2023-07-28T08:14:27;20.40;57.70
71668;DHT22;59504;54.806;9.640;2023-07-28T08:16:46;20.40;57.60
71668;DHT22;59504;54.806;9.640;2023-07-28T08:19:05;20.50;57.90
71668;DHT22;59504;54.806;9.640;2023-07-28T08:21:25;20.50;57.20
71668;DHT22;59504;54.806;9.640;2023-07-28T08:23:45;20.60;57.60
71668;DHT22;59504;54.806;9.640;2023-07-28T08:26:04;20.60;57.90
71668;DHT22;59504;54.806;9.640;2023-07-28T08:28:23;20.70;57.20
71668;DHT22;59504;54.806;9.640;2023-07-28T08:30:43;20.70;58.30
71668;DHT22;59504;54.806;9.640;2023-07-28T08:33:02;20.80;56.10
71668;DHT22;59504;54.806;9.640;2023-07-28T08:35:22;20.90;56.20
71668;DHT22;59504;54.806;9.640;2023-07-28T08:37:41;20.90;57.10
71668;DHT22;59504;54.806;9.640;2023-07-28T08:40:00;21.00;56.50
71668;DHT22;59504;54.806;9.640;2023-07-28T08:42:20;21.00;55.90
71668;DHT22;59504;54.806;9.640;2023-07-28T08:44:40;21.10;56.40
71668;DHT22;59504;54.806;9.640;2023-07-28T08:46:59;21.10;54.50
71668;DHT22;59504;54.806;9.640;2023-07-28T08:49:19;21.20;56.20
71668;DHT22;59504;54.806;9.640;2023-07-28T08:51:40;21.20;55.20
71668;DHT22;59504;54.806;9.640;2023-07-28T08:53:59;21.30;55.50
71668;DHT22;59504;54.806;9.640;2023-07-28T08:56:20;21.30;56.00
71668;DHT22;59504;54.806;9.640;2023-07-28T08:58:39;21.40;56.20
71668;DHT22;59504;54.806;9.640;2023-07-28T09:00:59;21.50;55.10
71668;DHT22;59504;54.806;9.640;2023-07-28T09:03:21;21.50;55.20
71668;DHT22;59504;54.806;9.640;2023-07-28T09:05:42;21.60;54.80
71668;DHT22;59504;54.806;9.640;2023-07-28T09:08:01;21.70;55.20
71668;DHT22;59504;54.806;9.640;2023-07-28T09:10:21;21.70;54.30
71668;DHT22;59504;54.806;9.640;2023-07-28T09:12:49;21.80;55.10
71668;DHT22;59504;54.806;9.640;2023-07-28T09:15:09;21.90;52.80
71668;DHT22;59504;54.806;9.640;2023-07-28T09:17:41;21.90;51.90
71668;DHT22;59504;54.806;9.640;2023-07-28T09:20:00;21.90;52.30
71668;DHT22;59504;54.806;9.640;2023-07-28T09:22:19;21.90;52.40
71668;DHT22;59504;54.806;9.640;2023-07-28T09:24:39;22.00;51.60
71668;DHT22;59504;54.806;9.640;2023-07-28T09:26:58;22.00;51.00
71668;DHT22;59504;54.806;9.640;2023-07-28T09:29:18;22.00;51.30
71668;DHT22;59504;54.806;9.640;2023-07-28T09:31:37;22.00;51.90
71668;DHT22;59504;54.806;9.640;2023-07-28T09:33:57;22.00;52.20
71668;DHT22;59504;54.806;9.640;2023-07-28T09:36:16;22.00;51.60
71668;DHT22;59504;54.806;9.640;2023-07-28T09:38:36;22.00;52.30
71668;DHT22;59504;54.806;9.640;2023-07-28T09:40:56;22.00;51.00
71668;DHT22;59504;54.806;9.640;2023-07-28T09:43:16;22.00;52.00
71668;DHT22;59504;54.806;9.640;2023-07-28T09:45:35;22.00;51.10
71668;DHT22;59504;54.806;9.640;2023-07-28T09:47:56;22.10;52.00
71668;DHT22;59504;54.806;9.640;2023-07-28T09:50:17;22.10;51.80
71668;DHT22;59504;54.806;9.640;2023-07-28T09:52:37;22.00;51.30
71668;DHT22;59504;54.806;9.640;2023-07-28T09:54:57;22.00;51.30
71668;DHT22;59504;54.806;9.640;2023-07-28T09:57:19;21.90;52.00
71668;DHT22;59504;54.806;9.640;2023-07-28T09:59:39;22.00;52.70
71668;DHT22;59504;54.806;9.640;2023-07-28T10:01:59;21.90;50.40
71668;DHT22;59504;54.806;9.640;2023-07-28T10:04:19;21.90;50.00
71668;DHT22;59504;54.806;9.640;2023-07-28T10:06:40;22.00;51.30
71668;DHT22;59504;54.806;9.640;2023-07-28T10:08:59;22.00;51.10
71668;DHT22;59504;54.806;9.640;2023-07-28T10:11:18;22.00;51.20
71668;DHT22;59504;54.806;9.640;2023-07-28T10:13:42;22.00;50.90
71668;DHT22;59504;54.806;9.640;2023-07-28T10:16:01;21.90;49.90
71668;DHT22;59504;54.806;9.640;2023-07-28T10:18:21;22.00;50.00
71668;DHT22;59504;54.806;9.640;2023-07-28T10:20:44;22.00;50.80
71668;DHT22;59504;54.806;9.640;2023-07-28T10:23:10;22.00;49.70
71668;DHT22;59504;54.806;9.640;2023-07-28T10:25:34;22.00;49.10
71668;DHT22;59504;54.806;9.640;2023-07-28T10:27:54;22.10;50.20
71668;DHT22;59504;54.806;9.640;2023-07-28T10:30:13;22.10;50.20
71668;DHT22;59504;54.806;9.640;2023-07-28T10:34:58;22.20;49.70
71668;DHT22;59504;54.806;9.640;2023-07-28T10:37:18;22.20;49.90
71668;DHT22;59504;54.806;9.640;2023-07-28T10:39:41;22.10;49.70
71668;DHT22;59504;54.806;9.640;2023-07-28T10:42:02;22.20;49.80
71668;DHT22;59504;54.806;9.640;2023-07-28T10:44:22;22.20;49.20
71668;DHT22;59504;54.806;9.640;2023-07-28T10:46:41;22.20;49.60
71668;DHT22;59504;54.806;9.640;2023-07-28T10:49:04;22.20;47.40
71668;DHT22;59504;54.806;9.640;2023-07-28T10:51:24;22.30;47.60
71668;DHT22;59504;54.806;9.640;2023-07-28T10:53:44;22.20;46.80
71668;DHT22;59504;54.806;9.640;2023-07-28T10:56:03;22.30;48.80
71668;DHT22;59504;54.806;9.640;2023-07-28T10:58:23;22.30;48.40
71668;DHT22;59504;54.806;9.640;2023-07-28T11:00:42;22.30;48.90
71668;DHT22;59504;54.806;9.640;2023-07-28T11:03:01;22.30;48.40
71668;DHT22;59504;54.806;9.640;2023-07-28T11:07:43;22.30;48.50
71668;DHT22;59504;54.806;9.640;2023-07-28T11:10:03;22.40;48.60
71668;DHT22;59504;54.806;9.640;2023-07-28T11:12:25;22.40;48.70
71668;DHT22;59504;54.806;9.640;2023-07-28T11:14:44;22.40;47.70
71668;DHT22;59504;54.806;9.640;2023-07-28T11:17:03;22.40;47.80
71668;DHT22;59504;54.806;9.640;2023-07-28T11:19:24;22.50;47.60
71668;DHT22;59504;54.806;9.640;2023-07-28T11:21:43;22.50;48.50
71668;DHT22;59504;54.806;9.640;2023-07-28T11:24:03;22.60;47.90
71668;DHT22;59504;54.806;9.640;2023-07-28T11:26:22;22.60;48.10
71668;DHT22;59504;54.806;9.640;2023-07-28T11:28:41;22.60;46.20
71668;DHT22;59504;54.806;9.640;2023-07-28T11:31:00;22.70;47.20
71668;DHT22;59504;54.806;9.640;2023-07-28T11:33:20;22.70;47.20
71668;DHT22;59504;54.806;9.640;2023-07-28T11:35:39;22.70;47.90
71668;DHT22;59504;54.806;9.640;2023-07-28T11:37:59;22.70;46.40
71668;DHT22;59504;54.806;9.640;2023-07-28T11:40:21;22.80;47.70
71668;DHT22;59504;54.806;9.640;2023-07-28T11:42:45;22.80;47.20
71668;DHT22;59504;54.806;9.640;2023-07-28T11:45:05;22.80;46.70
71668;DHT22;59504;54.806;9.640;2023-07-28T11:47:25;22.90;47.50
71668;DHT22;59504;54.806;9.640;2023-07-28T11:49:48;22.90;47.30
71668;DHT22;59504;54.806;9.640;2023-07-28T11:52:07;22.80;46.60
71668;DHT22;59504;54.806;9.640;2023-07-28T11:54:26;22.90;47.80
71668;DHT22;59504;54.806;9.640;2023-07-28T11:56:46;22.90;47.80
71668;DHT22;59504;54.806;9.640;2023-07-28T11:59:05;22.90;48.30
71668;DHT22;59504;54.806;9.640;2023-07-28T12:01:25;23.00;48.00
71668;DHT22;59504;54.806;9.640;2023-07-28T12:03:44;23.00;48.20
71668;DHT22;59504;54.806;9.640;2023-07-28T12:06:06;23.10;48.00
71668;DHT22;59504;54.806;9.640;2023-07-28T12:08:35;23.10;47.50
71668;DHT22;59504;54.806;9.640;2023-07-28T12:10:55;23.20;47.30
71668;DHT22;59504;54.806;9.640;2023-07-28T12:13:15;23.20;47.50
71668;DHT22;59504;54.806;9.640;2023-07-28T12:15:40;23.20;46.00
71668;DHT22;59504;54.806;9.640;2023-07-28T12:18:07;23.30;47.80
71668;DHT22;59504;54.806;9.640;2023-07-28T12:20:32;23.30;45.80
71668;DHT22;59504;54.806;9.640;2023-07-28T12:22:51;23.30;45.90
71668;DHT22;59504;54.806;9.640;2023-07-28T12:25:11;23.30;45.60
71668;DHT22;59504;54.806;9.640;2023-07-28T12:27:30;23.30;46.70
71668;DHT22;59504;54.806;9.640;2023-07-28T12:29:50;23.40;46.80
71668;DHT22;59504;54.806;9.640;2023-07-28T12:32:09;23.40;45.70
71668;DHT22;59504;54.806;9.640;2023-07-28T12:34:28;23.40;46.70
71668;DHT22;59504;54.806;9.640;2023-07-28T12:36:48;23.40;48.10
71668;DHT22;59504;54.806;9.640;2023-07-28T12:39:07;23.50;47.10
71668;DHT22;59504;54.806;9.640;2023-07-28T12:41:26;23.60;46.40
71668;DHT22;59504;54.806;9.640;2023-07-28T12:43:45;23.60;46.50
71668;DHT22;59504;54.806;9.640;2023-07-28T12:46:05;23.60;46.90
71668;DHT22;59504;54.806;9.640;2023-07-28T12:48:24;23.70;47.10
71668;DHT22;59504;54.806;9.640;2023-07-28T12:50:43;23.70;45.60
71668;DHT22;59504;54.806;9.640;2023-07-28T12:53:02;23.70;45.20
71668;DHT22;59504;54.806;9.640;2023-07-28T12:55:22;23.70;44.80
71668;DHT22;59504;54.806;9.640;2023-07-28T12:57:41;23.70;44.00
71668;DHT22;59504;54.806;9.640;2023-07-28T13:00:00;23.70;45.60
71668;DHT22;59504;54.806;9.640;2023-07-28T13:02:19;23.70;45.60
71668;DHT22;59504;54.806;9.640;2023-07-28T13:04:39;23.70;45.20
71668;DHT22;59504;54.806;9.640;2023-07-28T13:06:58;23.70;45.30
71668;DHT22;59504;54.806;9.640;2023-07-28T13:09:17;23.70;45.00
71668;DHT22;59504;54.806;9.640;2023-07-28T13:11:36;23.60;44.60
71668;DHT22;59504;54.806;9.640;2023-07-28T13:13:55;23.60;45.10
71668;DHT22;59504;54.806;9.640;2023-07-28T13:16:15;23.60;45.70
71668;DHT22;59504;54.806;9.640;2023-07-28T13:18:34;23.50;45.70
71668;DHT22;59504;54.806;9.640;2023-07-28T13:20:53;23.50;44.70
71668;DHT22;59504;54.806;9.640;2023-07-28T13:23:12;23.50;44.30
71668;DHT22;59504;54.806;9.640;2023-07-28T13:25:32;23.50;44.60
71668;DHT22;59504;54.806;9.640;2023-07-28T13:27:51;23.50;44.60
71668;DHT22;59504;54.806;9.640;2023-07-28T13:30:10;23.50;45.50
71668;DHT22;59504;54.806;9.640;2023-07-28T13:32:29;23.50;46.00
71668;DHT22;59504;54.806;9.640;2023-07-28T13:34:48;23.50;46.60
71668;DHT22;59504;54.806;9.640;2023-07-28T13:37:08;23.50;45.60
71668;DHT22;59504;54.806;9.640;2023-07-28T13:39:27;23.60;45.70
71668;DHT22;59504;54.806;9.640;2023-07-28T13:41:47;23.70;45.70
71668;DHT22;59504;54.806;9.640;2023-07-28T13:44:06;23.60;46.40
71668;DHT22;59504;54.806;9.640;2023-07-28T13:46:25;23.70;45.40
71668;DHT22;59504;54.806;9.640;2023-07-28T13:48:45;23.70;45.60
71668;DHT22;59504;54.806;9.640;2023-07-28T13:51:05;23.70;44.90
71668;DHT22;59504;54.806;9.640;2023-07-28T13:53:24;23.70;45.50
71668;DHT22;59504;54.806;9.640;2023-07-28T13:55:43;23.70;45.60
71668;DHT22;59504;54.806;9.640;2023-07-28T13:58:02;23.70;45.80
71668;DHT22;59504;54.806;9.640;2023-07-28T14:00:21;23.70;46.10
71668;DHT22;59504;54.806;9.640;2023-07-28T14:02:40;23.70;46.00
71668;DHT22;59504;54.806;9.640;2023-07-28T14:05:00;23.70;44.30
71668;DHT22;59504;54.806;9.640;2023-07-28T14:07:19;23.70;45.50
71668;DHT22;59504;54.806;9.640;2023-07-28T14:09:38;23.70;45.60
71668;DHT22;59504;54.806;9.640;2023-07-28T14:11:58;23.80;45.80
71668;DHT22;59504;54.806;9.640;2023-07-28T14:14:17;23.80;44.90
71668;DHT22;59504;54.806;9.640;2023-07-28T14:16:36;23.80;45.00
71668;DHT22;59504;54.806;9.640;2023-07-28T14:18:56;23.80;45.10
71668;DHT22;59504;54.806;9.640;2023-07-28T14:21:15;23.90;45.40
71668;DHT22;59504;54.806;9.640;2023-07-28T14:23:35;23.90;45.20
71668;DHT22;59504;54.806;9.640;2023-07-28T14:25:54;24.00;45.90
71668;DHT22;59504;54.806;9.640;2023-07-28T14:28:13;24.00;45.60
71668;DHT22;59504;54.806;9.640;2023-07-28T14:30:33;24.00;45.90
71668;DHT22;59504;54.806;9.640;2023-07-28T14:32:52;24.00;46.20
71668;DHT22;59504;54.806;9.640;2023-07-28T14:35:11;24.00;46.20
71668;DHT22;59504;54.806;9.640;2023-07-28T14:37:30;24.00;46.40
71668;DHT22;59504;54.806;9.640;2023-07-28T14:39:49;24.10;46.60
71668;DHT22;59504;54.806;9.640;2023-07-28T14:42:08;24.10;46.40
71668;DHT22;59504;54.806;9.640;2023-07-28T14:44:28;24.10;46.50
71668;DHT22;59504;54.806;9.640;2023-07-28T14:46:47;24.10;46.10
71668;DHT22;59504;54.806;9.640;2023-07-28T14:49:06;24.20;45.70
71668;DHT22;59504;54.806;9.640;2023-07-28T14:51:25;24.20;46.30